Time;durP1;ratioP1;P1;durP2;ratioP2;P2;SDS_P1;SDS_P2;PMS_P1;PMS_P2;Temp;Humidity;BMP_temperature;BMP_pressure;BME280_temperature;BME280_humidity;BME280_pressure;Samples;Min_cycle;Max_cycle;Signal;HPM_P1;HPM_P2
2022/11/24 00:01:18;;;;;;;;;3.00;2.33;;;;;-146.44;100.00;58906.56;5014977;28;45431;-63
2022/11/24 00:03:44;;;;;;;;;4.33;4.33;;;;;-146.44;100.00;58906.56;5015163;28;45394;-60
2022/11/24 00:06:12;;;;;;;;;3.67;2.00;;;;;-146.44;100.00;58906.56;5014997;28;45468;-62
2022/11/24 00:08:39;;;;;;;;;4.67;3.33;;;;;-146.44;100.00;58906.56;5014970;28;45760;-61
2022/11/24 00:11:07;;;;;;;;;4.33;2.00;;;;;-146.44;100.00;58906.56;5014755;28;45522;-62
2022/11/24 00:13:33;;;;;;;;;5.67;4.00;;;;;-146.44;100.00;58906.56;5014752;28;45574;-62
2022/11/24 00:16:11;;;;;;;;;5.33;3.00;;;;;-146.44;100.00;58906.56;5014756;28;45529;-60
2022/11/24 00:18:38;;;;;;;;;3.33;3.33;;;;;-146.44;100.00;58906.56;5015075;28;45418;-61
2022/11/24 00:21:04;;;;;;;;;4.00;4.00;;;;;-146.44;100.00;58906.56;5014410;28;45613;-60
2022/11/24 00:23:29;;;;;;;;;4.00;3.00;;;;;-146.44;100.00;58906.56;5014593;28;45502;-64
2022/11/24 00:26:02;;;;;;;;;3.00;3.00;;;;;-146.44;100.00;58906.56;5013824;28;45538;-63
2022/11/24 00:28:27;;;;;;;;;3.67;3.67;;;;;-146.44;100.00;58906.56;5014391;28;45531;-60
2022/11/24 00:30:53;;;;;;;;;3.67;3.00;;;;;-146.44;100.00;58906.56;5014409;28;45430;-61
2022/11/24 00:33:18;;;;;;;;;4.00;2.67;;;;;-146.44;100.00;58906.56;5013842;28;59943;-63
2022/11/24 00:35:43;;;;;;;;;5.00;2.33;;;;;-146.44;100.00;58906.56;5014092;28;55392;-63
2022/11/24 00:38:09;;;;;;;;;4.67;3.67;;;;;-146.44;100.00;58906.56;5014510;28;45433;-64
2022/11/24 00:40:34;;;;;;;;;2.00;2.00;;;;;-146.44;100.00;58906.56;5014119;28;51484;-61
2022/11/24 00:42:59;;;;;;;;;2.67;2.00;;;;;-146.44;100.00;58906.56;5014671;28;45535;-62
2022/11/24 00:45:25;;;;;;;;;3.00;3.00;;;;;-146.44;100.00;58906.56;5013523;28;53807;-60
2022/11/24 00:47:50;;;;;;;;;2.00;2.00;;;;;-146.44;100.00;58906.56;5014647;28;45425;-61
2022/11/24 00:50:15;;;;;;;;;2.00;2.00;;;;;-146.44;100.00;58906.56;5014452;28;45485;-64
2022/11/24 00:52:41;;;;;;;;;2.33;2.33;;;;;-146.44;100.00;58906.56;5014320;28;45958;-60
2022/11/24 00:55:06;;;;;;;;;1.00;1.00;;;;;-146.44;100.00;58906.56;5014240;28;45492;-60
2022/11/24 00:57:34;;;;;;;;;2.00;2.00;;;;;-146.44;100.00;58906.56;5029591;28;45746;-64
2022/11/24 00:59:59;;;;;;;;;4.67;2.67;;;;;-146.44;100.00;58906.56;5012085;28;45686;-63
2022/11/24 01:02:25;;;;;;;;;4.33;1.00;;;;;-146.44;100.00;58906.56;5013536;28;57990;-61
2022/11/24 01:04:50;;;;;;;;;2.00;2.00;;;;;-146.44;100.00;58906.56;5013501;28;45479;-63
2022/11/24 01:07:16;;;;;;;;;0.00;0.00;;;;;-146.44;100.00;58906.56;5013997;28;45600;-62
2022/11/24 01:09:42;;;;;;;;;0.00;0.00;;;;;-146.44;100.00;58906.56;5014129;28;45447;-63
2022/11/24 01:12:07;;;;;;;;;0.00;0.00;;;;;-146.44;100.00;58906.56;5013995;28;45585;-63
2022/11/24 01:14:33;;;;;;;;;0.33;0.33;;;;;-146.44;100.00;58906.56;5013906;28;45509;-63
2022/11/24 01:16:58;;;;;;;;;1.00;1.00;;;;;-146.44;100.00;58906.56;5012071;28;45508;-63
2022/11/24 01:19:24;;;;;;;;;2.00;2.00;;;;;-146.44;100.00;58906.56;5013886;28;45501;-63
2022/11/24 01:21:49;;;;;;;;;1.00;1.00;;;;;-146.44;100.00;58906.56;5012293;28;46047;-61
2022/11/24 01:24:15;;;;;;;;;3.67;1.00;;;;;-146.44;100.00;58906.56;5013709;28;45478;-61
2022/11/24 01:26:41;;;;;;;;;0.00;0.00;;;;;-146.44;100.00;58906.56;5014186;28;45435;-59
2022/11/24 01:29:07;;;;;;;;;2.00;2.00;;;;;-146.44;100.00;58906.56;5012666;28;45564;-63
2022/11/24 01:31:32;;;;;;;;;2.00;2.00;;;;;-146.44;100.00;58906.56;5013013;28;46401;-61
2022/11/24 01:33:58;;;;;;;;;2.00;1.00;;;;;-146.44;100.00;58906.56;5013602;28;45462;-61
2022/11/24 01:36:23;;;;;;;;;0.67;0.67;;;;;-146.44;100.00;58906.56;5013564;28;45471;-61
2022/11/24 01:38:49;;;;;;;;;0.00;0.00;;;;;-146.44;100.00;58906.56;5008543;28;45484;-60
2022/11/24 01:41:23;;;;;;;;;1.00;1.00;;;;;-146.44;100.00;58906.56;5025368;28;45488;-62
2022/11/24 01:43:49;;;;;;;;;1.33;0.00;;;;;-146.44;100.00;58906.56;5013662;28;45435;-64
2022/11/24 01:46:32;;;;;;;;;2.00;1.00;;;;;-146.44;100.00;58906.56;5013719;28;45423;-61
2022/11/24 01:49:18;;;;;;;;;3.67;1.00;;;;;-146.44;100.00;58906.56;5013851;28;45473;-60
2022/11/24 01:52:21;;;;;;;;;0.00;0.00;;;;;-146.44;100.00;58906.56;5016967;28;45509;-62
2022/11/24 01:54:57;;;;;;;;;1.00;0.00;;;;;-146.44;100.00;58906.56;5015932;28;45608;-62
2022/11/24 01:57:29;;;;;;;;;1.00;1.00;;;;;-146.44;100.00;58906.56;5016858;28;45826;-64
2022/11/24 02:00:10;;;;;;;;;0.00;0.00;;;;;-146.44;100.00;58906.56;5016721;28;45509;-63
2022/11/24 02:02:35;;;;;;;;;0.00;0.00;;;;;-146.44;100.00;58906.56;5016905;28;46129;-63
2022/11/24 02:05:07;;;;;;;;;0.00;0.00;;;;;-146.44;100.00;58906.56;5015078;28;45563;-61
2022/11/24 02:07:34;;;;;;;;;0.67;0.67;;;;;-146.44;100.00;58906.56;5016973;28;45550;-63
2022/11/24 02:10:07;;;;;;;;;0.00;0.00;;;;;-146.44;100.00;58906.56;5016920;28;45370;-64
2022/11/24 02:12:34;;;;;;;;;0.00;0.00;;;;;-146.44;100.00;58906.56;5016633;28;45468;-62
2022/11/24 02:14:59;;;;;;;;;1.67;0.00;;;;;-146.44;100.00;58906.56;5016477;28;45514;-60
2022/11/24 02:17:25;;;;;;;;;1.33;1.33;;;;;-146.44;100.00;58906.56;5016714;28;45494;-64
2022/11/24 02:19:55;;;;;;;;;0.67;0.67;;;;;-146.44;100.00;58906.56;5016612;28;45646;-61
2022/11/24 02:22:32;;;;;;;;;0.00;0.00;;;;;-146.44;100.00;58906.56;5016610;28;46213;-61
2022/11/24 02:25:06;;;;;;;;;0.00;0.00;;;;;-146.44;100.00;58906.56;5016115;28;45488;-62
2022/11/24 02:27:32;;;;;;;;;0.00;0.00;;;;;-146.44;100.00;58906.56;5016656;28;45584;-60
2022/11/24 02:29:58;;;;;;;;;1.67;1.67;;;;;-146.44;100.00;58906.56;5016555;28;45496;-60
2022/11/24 02:32:23;;;;;;;;;3.00;1.67;;;;;-146.44;100.00;58906.56;5015548;28;46429;-63
2022/11/24 02:34:48;;;;;;;;;2.00;0.00;;;;;-146.44;100.00;58906.56;5016361;28;45425;-60
2022/11/24 02:37:14;;;;;;;;;3.00;1.67;;;;;-146.44;100.00;58906.56;5016379;28;45478;-64
2022/11/24 02:39:39;;;;;;;;;1.00;1.00;;;;;-146.44;100.00;58906.56;5016583;28;45699;-62
2022/11/24 02:42:09;;;;;;;;;0.33;0.33;;;;;-146.44;100.00;58906.56;5016269;28;53030;-64
2022/11/24 02:44:41;;;;;;;;;2.00;0.00;;;;;-146.44;100.00;58906.56;5014626;28;45544;-63
2022/11/24 02:47:09;;;;;;;;;1.67;1.67;;;;;-146.44;100.00;58906.56;5016271;28;45456;-64
2022/11/24 02:49:35;;;;;;;;;0.67;0.33;;;;;-146.44;100.00;58906.56;5002683;28;45568;-61
2022/11/24 02:52:00;;;;;;;;;3.00;1.00;;;;;-146.44;100.00;58906.56;5015810;28;45522;-61
2022/11/24 02:54:26;;;;;;;;;2.33;0.33;;;;;-146.44;100.00;58906.56;5014630;28;45515;-61
2022/11/24 02:56:51;;;;;;;;;1.33;1.33;;;;;-146.44;100.00;58906.56;5014853;28;45455;-64
2022/11/24 02:59:17;;;;;;;;;0.00;0.00;;;;;-146.44;100.00;58906.56;5015937;28;45465;-63
2022/11/24 03:01:42;;;;;;;;;2.33;1.00;;;;;-146.44;100.00;58906.56;5014688;28;45413;-61
2022/11/24 03:04:08;;;;;;;;;2.33;1.00;;;;;-146.44;100.00;58906.56;5016043;28;45512;-63
2022/11/24 03:06:33;;;;;;;;;1.00;1.00;;;;;-146.44;100.00;58906.56;5016276;28;45520;-63
2022/11/24 03:08:58;;;;;;;;;3.00;1.00;;;;;-146.44;100.00;58906.56;5016078;28;45695;-62
2022/11/24 03:11:24;;;;;;;;;1.33;1.33;;;;;-146.44;100.00;58906.56;5015791;28;45533;-64
2022/11/24 03:13:49;;;;;;;;;3.00;1.00;;;;;-146.44;100.00;58906.56;5015952;28;45490;-62
2022/11/24 03:16:15;;;;;;;;;2.00;2.00;;;;;-146.44;100.00;58906.56;5015436;28;45463;-62
2022/11/24 03:18:40;;;;;;;;;3.67;2.67;;;;;-146.44;100.00;58906.56;5015763;28;45655;-61
2022/11/24 03:21:05;;;;;;;;;2.67;1.67;;;;;-146.44;100.00;58906.56;5015281;28;52727;-62
2022/11/24 03:23:31;;;;;;;;;2.33;1.33;;;;;-146.44;100.00;58906.56;5015351;28;45568;-63
2022/11/24 03:26:07;;;;;;;;;1.00;1.00;;;;;-146.44;100.00;58906.56;5015636;28;45481;-63
2022/11/24 03:28:33;;;;;;;;;1.00;1.00;;;;;-146.44;100.00;58906.56;5015805;28;45519;-64
2022/11/24 03:30:58;;;;;;;;;3.33;2.00;;;;;-146.44;100.00;58906.56;5015482;28;46061;-61
2022/11/24 03:33:23;;;;;;;;;2.00;1.67;;;;;-146.44;100.00;58906.56;5015201;28;46252;-60
2022/11/24 03:35:48;;;;;;;;;3.33;1.33;;;;;-146.44;100.00;58906.56;5015600;28;45419;-64
2022/11/24 03:38:14;;;;;;;;;1.00;1.00;;;;;-146.44;100.00;58906.56;5015126;28;46730;-62
2022/11/24 03:40:39;;;;;;;;;1.33;0.67;;;;;-146.44;100.00;58906.56;5030011;28;56911;-64
2022/11/24 03:43:04;;;;;;;;;2.00;2.00;;;;;-146.44;100.00;58906.56;5016322;28;45525;-63
2022/11/24 03:45:29;;;;;;;;;3.00;2.67;;;;;-146.44;100.00;58906.56;5014922;28;53781;-61
2022/11/24 03:47:55;;;;;;;;;4.00;2.00;;;;;-146.44;100.00;58906.56;5015291;28;45568;-61
2022/11/24 03:50:21;;;;;;;;;3.67;1.33;;;;;-146.44;100.00;58906.56;5015254;28;46234;-63
2022/11/24 03:52:46;;;;;;;;;1.67;0.33;;;;;-146.44;100.00;58906.56;5015202;28;45530;-61
2022/11/24 03:55:11;;;;;;;;;1.00;1.00;;;;;-146.44;100.00;58906.56;5015275;28;45466;-63
2022/11/24 03:57:37;;;;;;;;;2.00;1.00;;;;;-146.44;100.00;58906.56;5014894;28;46538;-63
2022/11/24 04:00:03;;;;;;;;;0.67;0.67;;;;;-146.44;100.00;58906.56;5014997;28;46662;-63
2022/11/24 04:02:29;;;;;;;;;0.67;0.67;;;;;-146.44;100.00;58906.56;5015459;28;45586;-60
2022/11/24 04:04:54;;;;;;;;;2.00;2.00;;;;;-146.44;100.00;58906.56;5015210;28;45496;-60
2022/11/24 04:07:19;;;;;;;;;3.33;1.00;;;;;-146.44;100.00;58906.56;5014738;28;54026;-60
2022/11/24 04:09:44;;;;;;;;;1.00;1.00;;;;;-146.44;100.00;58906.56;5014726;28;46362;-61
2022/11/24 04:14:54;;;;;;;;;2.00;2.00;;;;;-146.44;100.00;58906.56;5014951;28;45482;-61
2022/11/24 04:17:19;;;;;;;;;4.00;2.00;;;;;-146.44;100.00;58906.56;5025999;28;45407;-63
2022/11/24 04:19:44;;;;;;;;;1.33;1.00;;;;;-146.44;100.00;58906.56;5014623;28;45467;-64
2022/11/24 04:22:10;;;;;;;;;1.00;1.00;;;;;-146.44;100.00;58906.56;5014882;28;45478;-62
2022/11/24 04:24:35;;;;;;;;;3.00;0.33;;;;;-146.44;100.00;58906.56;5013939;28;45549;-61
2022/11/24 04:27:00;;;;;;;;;0.00;0.00;;;;;-146.44;100.00;58906.56;5014914;28;45631;-63
2022/11/24 04:29:26;;;;;;;;;1.00;1.00;;;;;-146.44;100.00;58906.56;5014766;28;46325;-64
2022/11/24 04:31:51;;;;;;;;;2.00;1.00;;;;;-146.44;100.00;58906.56;5014520;28;45430;-61
2022/11/24 04:34:16;;;;;;;;;0.00;0.00;;;;;-146.44;100.00;58906.56;5014522;28;46604;-62
2022/11/24 04:36:41;;;;;;;;;2.00;2.00;;;;;-146.44;100.00;58906.56;5014632;28;45453;-61
2022/11/24 04:39:07;;;;;;;;;2.00;2.00;;;;;-146.44;100.00;58906.56;5014500;28;45509;-62
2022/11/24 04:41:32;;;;;;;;;2.67;2.33;;;;;-146.44;100.00;58906.56;5014402;28;45356;-62
2022/11/24 04:43:57;;;;;;;;;4.33;1.33;;;;;-146.44;100.00;58906.56;5014849;28;48651;-62
2022/11/24 04:46:23;;;;;;;;;1.67;1.00;;;;;-146.44;100.00;58906.56;5014474;28;46497;-63
2022/11/24 04:48:48;;;;;;;;;0.33;0.33;;;;;-146.44;100.00;58906.56;5014029;28;55091;-63
2022/11/24 04:51:14;;;;;;;;;1.00;1.00;;;;;-146.44;100.00;58906.56;5014151;28;45466;-62
2022/11/24 04:53:39;;;;;;;;;3.33;2.00;;;;;-146.44;100.00;58906.56;5014456;28;45544;-60
2022/11/24 04:56:05;;;;;;;;;1.67;1.00;;;;;-146.44;100.00;58906.56;5014224;28;45477;-61
2022/11/24 04:58:30;;;;;;;;;0.00;0.00;;;;;-146.44;100.00;58906.56;5014081;28;45492;-63
2022/11/24 05:00:56;;;;;;;;;0.00;0.00;;;;;-146.44;100.00;58906.56;5014101;28;45482;-62
2022/11/24 05:03:21;;;;;;;;;1.00;1.00;;;;;-146.44;100.00;58906.56;5014478;28;45465;-62
2022/11/24 05:05:46;;;;;;;;;1.33;0.00;;;;;-146.44;100.00;58906.56;5014012;28;49775;-64
2022/11/24 05:08:11;;;;;;;;;0.00;0.00;;;;;-146.44;100.00;58906.56;5013704;28;53312;-60
2022/11/24 05:10:37;;;;;;;;;1.00;1.00;;;;;-146.44;100.00;58906.56;5013867;28;46803;-64
2022/11/24 05:13:06;;;;;;;;;2.00;1.00;;;;;-146.44;100.00;58906.56;5013915;28;45501;-62
2022/11/24 05:15:32;;;;;;;;;2.67;1.00;;;;;-146.44;100.00;58906.56;5013935;28;45513;-64
2022/11/24 05:17:57;;;;;;;;;1.00;1.00;;;;;-146.44;100.00;58906.56;5013667;28;46072;-64
2022/11/24 05:20:23;;;;;;;;;2.33;2.33;;;;;-146.44;100.00;58906.56;5029193;28;46228;-64
2022/11/24 05:22:49;;;;;;;;;1.00;1.00;;;;;-146.44;100.00;58906.56;5013706;28;45514;-64
2022/11/24 05:25:14;;;;;;;;;1.00;1.00;;;;;-146.44;100.00;58906.56;5012581;28;45581;-59
2022/11/24 05:27:40;;;;;;;;;1.00;1.00;;;;;-146.44;100.00;58906.56;5013696;28;45585;-63
2022/11/24 05:30:06;;;;;;;;;1.00;1.00;;;;;-146.44;100.00;58906.56;5013430;28;45501;-62
2022/11/24 05:32:31;;;;;;;;;4.00;1.67;;;;;-146.44;100.00;58906.56;5013673;28;45526;-61
2022/11/24 05:34:57;;;;;;;;;1.00;1.00;;;;;-146.44;100.00;58906.56;5013516;28;45565;-61
2022/11/24 05:37:24;;;;;;;;;0.67;0.67;;;;;-146.44;100.00;58906.56;5013652;28;45552;-64
2022/11/24 05:39:49;;;;;;;;;1.33;1.00;;;;;-146.44;100.00;58906.56;5013529;28;45564;-61
2022/11/24 05:44:58;;;;;;;;;1.33;1.00;;;;;-146.44;100.00;58906.56;5013623;28;45511;-65
2022/11/24 05:47:24;;;;;;;;;2.33;1.67;;;;;-146.44;100.00;58906.56;5013166;28;45464;-59
2022/11/24 05:49:50;;;;;;;;;3.00;2.33;;;;;-146.44;100.00;58906.56;5028659;28;45513;-64
2022/11/24 05:52:16;;;;;;;;;1.00;1.00;;;;;-146.44;100.00;58906.56;5013479;28;45547;-62
2022/11/24 05:54:42;;;;;;;;;2.00;2.00;;;;;-146.44;100.00;58906.56;5013574;28;45379;-64
2022/11/24 05:57:07;;;;;;;;;3.00;2.33;;;;;-146.44;100.00;58906.56;5013344;28;46320;-62
2022/11/24 05:59:33;;;;;;;;;3.00;2.00;;;;;-146.44;100.00;58906.56;5013320;28;45490;-65
2022/11/24 06:01:59;;;;;;;;;1.00;1.00;;;;;-146.44;100.00;58906.56;5013963;28;45555;-59
2022/11/24 06:04:24;;;;;;;;;2.00;2.00;;;;;-146.44;100.00;58906.56;5014369;28;45622;-61
2022/11/24 06:06:49;;;;;;;;;1.00;1.00;;;;;-146.44;100.00;58906.56;5013510;28;52424;-59
2022/11/24 06:09:15;;;;;;;;;1.00;1.00;;;;;-146.44;100.00;58906.56;5013795;28;45432;-61
2022/11/24 06:11:40;;;;;;;;;2.33;1.00;;;;;-146.44;100.00;58906.56;5013912;28;45384;-62
2022/11/24 06:14:05;;;;;;;;;2.67;1.33;;;;;-146.44;100.00;58906.56;5013973;28;45580;-61
2022/11/24 06:16:31;;;;;;;;;4.00;3.00;;;;;-146.44;100.00;58906.56;5013435;28;46299;-65
2022/11/24 06:18:56;;;;;;;;;0.67;0.67;;;;;-146.44;100.00;58906.56;5013688;28;45491;-63
2022/11/24 06:21:21;;;;;;;;;1.67;1.67;;;;;-146.44;100.00;58906.56;5013450;28;45590;-63
2022/11/24 06:23:48;;;;;;;;;1.00;1.00;;;;;-146.44;100.00;58906.56;5013476;28;45493;-63
2022/11/24 06:26:13;;;;;;;;;1.00;1.00;;;;;-146.44;100.00;58906.56;5013615;28;45451;-62
2022/11/24 06:28:39;;;;;;;;;1.67;1.67;;;;;-146.44;100.00;58906.56;5013301;28;45552;-64
2022/11/24 06:31:05;;;;;;;;;2.00;2.00;;;;;-146.44;100.00;58906.56;5013778;28;45741;-60
2022/11/24 06:33:35;;;;;;;;;2.00;2.00;;;;;-146.44;100.00;58906.56;5012017;28;45452;-62
2022/11/24 06:36:03;;;;;;;;;3.00;1.00;;;;;-146.44;100.00;58906.56;5017211;28;46934;-61
2022/11/24 06:38:29;;;;;;;;;1.00;1.00;;;;;-146.44;100.00;58906.56;5012519;28;45822;-61
2022/11/24 06:41:06;;;;;;;;;2.33;1.33;;;;;-146.44;100.00;58906.56;5009534;28;45458;-63
2022/11/24 06:43:32;;;;;;;;;2.00;2.00;;;;;-146.44;100.00;58906.56;5015260;28;45639;-63
2022/11/24 06:45:58;;;;;;;;;1.33;1.33;;;;;-146.44;100.00;58906.56;5015920;28;46992;-60
2022/11/24 06:48:25;;;;;;;;;2.00;2.00;;;;;-146.44;100.00;58906.56;5017242;28;45451;-62
2022/11/24 06:50:51;;;;;;;;;1.00;1.00;;;;;-146.44;100.00;58906.56;5016241;28;45606;-63
2022/11/24 06:53:17;;;;;;;;;2.33;1.33;;;;;-146.44;100.00;58906.56;5016186;28;45462;-59
2022/11/24 06:55:43;;;;;;;;;2.00;2.00;;;;;-146.44;100.00;58906.56;5015864;28;46316;-62
2022/11/24 06:58:09;;;;;;;;;2.00;1.00;;;;;-146.44;100.00;58906.56;5017532;28;45587;-61
2022/11/24 07:00:36;;;;;;;;;1.00;1.00;;;;;-146.44;100.00;58906.56;5015171;28;45428;-61
2022/11/24 07:03:01;;;;;;;;;3.33;2.00;;;;;-146.44;100.00;58906.56;5026868;28;45473;-62
2022/11/24 07:05:26;;;;;;;;;2.33;2.00;;;;;-146.44;100.00;58906.56;5019455;28;46032;-61
2022/11/24 07:07:52;;;;;;;;;1.33;1.33;;;;;-146.44;100.00;58906.56;5018574;28;45479;-61
2022/11/24 07:10:17;;;;;;;;;1.00;1.00;;;;;-146.44;100.00;58906.56;5015847;28;45459;-61
2022/11/24 07:12:43;;;;;;;;;2.00;1.00;;;;;-146.44;100.00;58906.56;5015783;28;45627;-61
2022/11/24 07:15:09;;;;;;;;;3.00;2.00;;;;;-146.44;100.00;58906.56;5015759;28;46155;-62
2022/11/24 07:17:38;;;;;;;;;1.67;1.00;;;;;-146.44;100.00;58906.56;5015652;28;45556;-54
2022/11/24 07:20:05;;;;;;;;;4.00;3.00;;;;;-146.44;100.00;58906.56;5023571;28;45437;-63
2022/11/24 07:22:31;;;;;;;;;4.00;4.00;;;;;-146.44;100.00;58906.56;5014428;28;45531;-63
2022/11/24 07:24:56;;;;;;;;;4.00;4.00;;;;;-146.44;100.00;58906.56;5016133;28;45876;-63
2022/11/24 07:27:21;;;;;;;;;2.33;2.33;;;;;-146.44;100.00;58906.56;5015409;28;48065;-63
2022/11/24 07:29:47;;;;;;;;;2.67;1.67;;;;;-146.44;100.00;58906.56;5016498;28;45532;-62
2022/11/24 07:32:12;;;;;;;;;2.00;2.00;;;;;-146.44;100.00;58906.56;5030548;28;51064;-63
2022/11/24 07:34:37;;;;;;;;;2.67;2.33;;;;;-146.44;100.00;58906.56;5013674;28;45560;-63
2022/11/24 07:37:03;;;;;;;;;5.00;2.33;;;;;-146.44;100.00;58906.56;5015304;28;45534;-63
2022/11/24 07:39:28;;;;;;;;;3.67;3.00;;;;;-146.44;100.00;58906.56;5015262;28;45739;-63
2022/11/24 07:41:53;;;;;;;;;4.00;3.00;;;;;-146.44;100.00;58906.56;5025255;28;45508;-56
2022/11/24 07:44:19;;;;;;;;;4.67;4.33;;;;;-146.44;100.00;58906.56;5015501;28;48642;-57
2022/11/24 07:46:44;;;;;;;;;3.00;3.00;;;;;-146.44;100.00;58906.56;5013135;28;54248;-63
2022/11/24 07:49:09;;;;;;;;;5.00;2.33;;;;;-146.44;100.00;58906.56;5014354;28;45532;-61
2022/11/24 07:51:35;;;;;;;;;6.00;5.00;;;;;-146.44;100.00;58906.56;5015245;28;45571;-62
2022/11/24 07:54:01;;;;;;;;;4.00;4.00;;;;;-146.44;100.00;58906.56;5014902;28;46035;-60
2022/11/24 07:56:26;;;;;;;;;3.00;3.00;;;;;-146.44;100.00;58906.56;5014779;28;45497;-61
2022/11/24 07:58:52;;;;;;;;;4.33;3.33;;;;;-146.44;100.00;58906.56;5014205;28;45484;-61
2022/11/24 08:01:17;;;;;;;;;2.00;2.00;;;;;-146.44;100.00;58906.56;5014871;28;45743;-63
2022/11/24 08:03:44;;;;;;;;;3.00;3.00;;;;;-146.44;100.00;58906.56;5014518;28;46181;-57
2022/11/24 08:06:11;;;;;;;;;6.67;6.67;;;;;-146.44;100.00;58906.56;5015043;28;45639;-58
2022/11/24 08:08:36;;;;;;;;;4.67;3.33;;;;;-146.44;100.00;58906.56;5012831;28;45583;-59
2022/11/24 08:11:07;;;;;;;;;5.00;3.67;;;;;-146.44;100.00;58906.56;5014773;28;45601;-58
2022/11/24 08:13:34;;;;;;;;;3.00;3.00;;;;;-146.44;100.00;58906.56;5017498;28;46427;-61
2022/11/24 08:16:06;;;;;;;;;5.00;4.00;;;;;-146.44;100.00;58906.56;5014260;28;45661;-61
2022/11/24 08:18:33;;;;;;;;;4.33;3.33;;;;;-146.44;100.00;58906.56;5014337;28;45531;-65
2022/11/24 08:20:58;;;;;;;;;3.33;3.33;;;;;-146.44;100.00;58906.56;5014527;28;45574;-60
2022/11/24 08:23:24;;;;;;;;;6.00;4.00;;;;;-146.44;100.00;58906.56;5013795;28;45564;-60
2022/11/24 08:25:49;;;;;;;;;8.00;5.00;;;;;-146.44;100.00;58906.56;5013920;28;56372;-61
2022/11/24 08:28:14;;;;;;;;;5.33;4.33;;;;;-146.44;100.00;58906.56;5014705;28;45493;-63
2022/11/24 08:30:40;;;;;;;;;7.00;5.67;;;;;-146.44;100.00;58906.56;5014257;28;45601;-65
2022/11/24 08:33:05;;;;;;;;;3.67;3.67;;;;;-146.44;100.00;58906.56;5014031;28;48491;-65
2022/11/24 08:35:30;;;;;;;;;7.67;5.00;;;;;-146.44;100.00;58906.56;5014270;28;45526;-63
2022/11/24 08:37:56;;;;;;;;;4.33;4.33;;;;;-146.44;100.00;58906.56;5014039;28;48080;-65
2022/11/24 08:40:21;;;;;;;;;3.00;3.00;;;;;-146.44;100.00;58906.56;5014125;28;45559;-60
2022/11/24 08:42:46;;;;;;;;;4.33;3.33;;;;;-146.44;100.00;58906.56;5014598;28;46097;-62
2022/11/24 08:45:12;;;;;;;;;4.00;4.00;;;;;-146.44;100.00;58906.56;5014183;28;45488;-58
2022/11/24 08:47:37;;;;;;;;;3.00;3.00;;;;;-146.44;100.00;58906.56;5014178;28;46027;-60
2022/11/24 08:50:04;;;;;;;;;5.33;4.33;;;;;-146.44;100.00;58906.56;5014310;28;45590;-61
2022/11/24 08:52:29;;;;;;;;;3.00;2.00;;;;;-146.44;100.00;58906.56;5014027;28;45539;-61
2022/11/24 08:54:55;;;;;;;;;6.00;3.00;;;;;-146.44;100.00;58906.56;5014071;28;45423;-62
2022/11/24 08:57:20;;;;;;;;;12.00;5.67;;;;;-146.44;100.00;58906.56;5014189;28;45598;-61
2022/11/24 08:59:45;;;;;;;;;8.00;5.67;;;;;-146.44;100.00;58906.56;4999020;28;45505;-61
2022/11/24 09:02:12;;;;;;;;;4.00;3.00;;;;;-146.44;100.00;58906.56;5013827;28;50399;-59
2022/11/24 09:04:38;;;;;;;;;3.33;3.33;;;;;-146.44;100.00;58906.56;5013798;28;45461;-60
2022/11/24 09:07:04;;;;;;;;;3.33;2.00;;;;;-146.44;100.00;58906.56;5013922;28;45464;-59
2022/11/24 09:09:29;;;;;;;;;4.67;3.00;;;;;-146.44;100.00;58906.56;5014000;28;45657;-60
2022/11/24 09:11:55;;;;;;;;;3.00;3.00;;;;;-146.44;100.00;58906.56;5013613;28;46111;-62
2022/11/24 09:14:20;;;;;;;;;3.00;3.00;;;;;-146.44;100.00;58906.56;5013983;28;45484;-59
2022/11/24 09:16:46;;;;;;;;;5.00;4.33;;;;;-146.44;100.00;58906.56;5013932;28;45391;-62
2022/11/24 09:19:11;;;;;;;;;4.67;4.67;;;;;-146.44;100.00;58906.56;5013819;28;45656;-58
2022/11/24 09:21:37;;;;;;;;;4.67;4.00;;;;;-146.44;100.00;58906.56;5013262;28;45914;-61
2022/11/24 09:24:04;;;;;;;;;3.00;3.00;;;;;-146.44;100.00;58906.56;5013446;28;45532;-61
2022/11/24 09:26:32;;;;;;;;;3.33;3.33;;;;;-146.44;100.00;58906.56;5013699;28;45726;-63
2022/11/24 09:28:59;;;;;;;;;4.33;4.33;;;;;-146.44;100.00;58906.56;5013650;28;45482;-61
2022/11/24 09:31:30;;;;;;;;;3.33;3.33;;;;;-146.44;100.00;58906.56;5013210;28;46241;-57
2022/11/24 09:33:56;;;;;;;;;3.67;3.00;;;;;-146.44;100.00;58906.56;5013637;28;45560;-64
2022/11/24 09:36:22;;;;;;;;;3.00;2.00;;;;;-146.44;100.00;58906.56;5013629;28;45509;-64
2022/11/24 09:38:47;;;;;;;;;2.00;2.00;;;;;-146.44;100.00;58906.56;5013331;28;45589;-62
2022/11/24 09:41:32;;;;;;;;;5.67;4.67;;;;;-146.44;100.00;58906.56;5013206;28;46042;-60
2022/11/24 09:44:28;;;;;;;;;4.00;3.00;;;;;-146.44;100.00;58906.56;5014009;28;45623;-62
2022/11/24 09:47:02;;;;;;;;;5.33;3.00;;;;;-146.44;100.00;58906.56;5013286;28;45497;-59
2022/11/24 09:50:02;;;;;;;;;18.33;16.00;;;;;-146.44;100.00;58906.56;5013428;28;45391;-60
2022/11/24 09:52:39;;;;;;;;;5.67;3.67;;;;;-146.44;100.00;58906.56;5012848;28;45498;-65
2022/11/24 09:55:16;;;;;;;;;5.00;4.00;;;;;-146.44;100.00;58906.56;5012144;28;45534;-60
2022/11/24 09:57:42;;;;;;;;;5.00;5.00;;;;;-146.44;100.00;58906.56;5013239;28;45548;-58
2022/11/24 10:00:13;;;;;;;;;8.00;8.00;;;;;-146.44;100.00;58906.56;5013370;28;45587;-59
2022/11/24 10:02:38;;;;;;;;;4.00;2.00;;;;;-146.44;100.00;58906.56;5012691;28;45490;-60
2022/11/24 10:05:05;;;;;;;;;4.67;2.00;;;;;-146.44;100.00;58906.56;5012943;28;45560;-62
2022/11/24 10:07:44;;;;;;;;;3.67;3.67;;;;;-146.44;100.00;58906.56;5013169;28;45514;-60
2022/11/24 10:10:22;;;;;;;;;6.67;5.33;;;;;-146.44;100.00;58906.56;5013506;28;45520;-63
2022/11/24 10:13:24;;;;;;;;;4.00;3.00;;;;;-146.44;100.00;58906.56;5016375;28;45460;-60
2022/11/24 10:16:05;;;;;;;;;14.00;10.00;;;;;-146.44;100.00;58906.56;5016538;28;45509;-66
2022/11/24 10:18:40;;;;;;;;;5.67;5.67;;;;;-146.44;100.00;58906.56;5016903;28;45497;-60
2022/11/24 10:21:34;;;;;;;;;8.67;8.00;;;;;-146.44;100.00;58906.56;5016330;28;45467;-61
2022/11/24 10:24:14;;;;;;;;;9.33;8.00;;;;;-146.44;100.00;58906.56;5014910;28;46498;-64
2022/11/24 10:26:48;;;;;;;;;10.33;9.33;;;;;-146.44;100.00;58906.56;5016271;28;45603;-63
2022/11/24 10:29:38;;;;;;;;;10.67;9.00;;;;;-146.44;100.00;58906.56;5016482;28;45478;-60
2022/11/24 10:32:12;;;;;;;;;8.67;5.33;;;;;-146.44;100.00;58906.56;5016001;28;45793;-61
2022/11/24 10:34:44;;;;;;;;;6.67;5.00;;;;;-146.44;100.00;58906.56;5016176;28;46086;-63
2022/11/24 10:37:09;;;;;;;;;3.00;3.00;;;;;-146.44;100.00;58906.56;5016054;28;45493;-61
2022/11/24 10:39:45;;;;;;;;;4.00;3.00;;;;;-146.44;100.00;58906.56;5016264;28;45372;-61
2022/11/24 10:42:25;;;;;;;;;3.33;2.00;;;;;-146.44;100.00;58906.56;5016125;28;45597;-61
2022/11/24 10:45:00;;;;;;;;;5.33;5.33;;;;;-146.44;100.00;58906.56;5016568;28;46313;-61
2022/11/24 10:47:27;;;;;;;;;8.67;4.00;;;;;-146.44;100.00;58906.56;5016041;28;45469;-63
2022/11/24 10:50:01;;;;;;;;;3.67;3.67;;;;;-146.44;100.00;58906.56;5016347;28;45501;-59
2022/11/24 10:52:30;;;;;;;;;4.00;4.00;;;;;-146.44;100.00;58906.56;5016054;28;45523;-61
2022/11/24 10:55:01;;;;;;;;;7.67;5.00;;;;;-146.44;100.00;58906.56;5015881;28;45661;-61
2022/11/24 10:57:29;;;;;;;;;5.00;4.67;;;;;-146.44;100.00;58906.56;5016018;28;45540;-64
2022/11/24 10:59:54;;;;;;;;;8.33;6.67;;;;;-146.44;100.00;58906.56;5016736;28;45477;-62
2022/11/24 11:02:29;;;;;;;;;6.00;5.00;;;;;-146.44;100.00;58906.56;5016036;28;45538;-57
2022/11/24 11:04:55;;;;;;;;;5.00;5.00;;;;;-146.44;100.00;58906.56;5015542;28;45494;-64
2022/11/24 11:07:24;;;;;;;;;7.67;5.67;;;;;-146.44;100.00;58906.56;5015146;28;45579;-61
2022/11/24 11:09:49;;;;;;;;;6.00;6.00;;;;;-146.44;100.00;58906.56;5015409;28;45407;-63
2022/11/24 11:12:29;;;;;;;;;6.00;6.00;;;;;-146.44;100.00;58906.56;5015526;28;45611;-62
2022/11/24 11:14:54;;;;;;;;;4.67;4.67;;;;;-146.44;100.00;58906.56;5015164;28;46182;-63
2022/11/24 11:17:28;;;;;;;;;5.67;4.33;;;;;-146.44;100.00;58906.56;5015398;28;45471;-60